Time;durP1;ratioP1;P1;durP2;ratioP2;P2;SDS_P1;SDS_P2;PMS_P1;PMS_P2;Temp;Humidity;BMP_temperature;BMP_pressure;BME280_temperature;BME280_humidity;BME280_pressure;Samples;Min_cycle;Max_cycle;Signal;HPM_P1;HPM_P2
2020/12/25 07:25:31;;;;;;;6.97;3.75;;;4.20;99.90;;;;;;5040886;28;20495;-68
2020/12/25 07:27:57;;;;;;;3.00;2.10;;;4.30;99.90;;;;;;5045967;28;20095;-72
2020/12/25 07:30:23;;;;;;;8.60;4.00;;;4.30;99.90;;;;;;5046748;28;20056;-69
2020/12/25 07:32:49;;;;;;;9.35;4.43;;;4.30;99.90;;;;;;5052346;28;20073;-67
2020/12/25 07:35:15;;;;;;;9.07;4.78;;;4.30;99.90;;;;;;5051065;28;20493;-68
2020/12/25 07:37:41;;;;;;;7.82;3.90;;;4.40;99.90;;;;;;5044689;28;20059;-68
2020/12/25 07:40:06;;;;;;;9.52;4.20;;;4.40;99.90;;;;;;5050761;28;20108;-68
2020/12/25 07:42:32;;;;;;;11.18;5.00;;;4.40;99.90;;;;;;5046448;28;20029;-69
2020/12/25 07:44:59;;;;;;;10.80;5.55;;;4.50;99.90;;;;;;5054277;28;20025;-69
2020/12/25 07:47:25;;;;;;;13.38;7.63;;;4.50;99.90;;;;;;5061824;28;20020;-68
2020/12/25 07:49:53;;;;;;;14.82;7.55;;;4.60;99.90;;;;;;5062118;28;20033;-69
2020/12/25 07:52:20;;;;;;;11.57;5.53;;;4.60;99.90;;;;;;5059522;28;20037;-67
2020/12/25 07:54:46;;;;;;;12.77;6.18;;;4.60;99.90;;;;;;5055858;28;20025;-68
2020/12/25 07:57:12;;;;;;;12.27;6.10;;;4.60;99.90;;;;;;5041582;28;20048;-67
2020/12/25 07:59:38;;;;;;;11.98;6.47;;;4.70;99.90;;;;;;5053216;28;20055;-68
2020/12/25 08:02:04;;;;;;;12.98;6.70;;;4.70;99.90;;;;;;5054115;28;20025;-66
2020/12/25 08:04:30;;;;;;;14.00;7.15;;;4.70;99.90;;;;;;5053635;28;20123;-69
2020/12/25 08:06:56;;;;;;;19.63;9.32;;;4.70;99.90;;;;;;5054802;28;20404;-68
2020/12/25 08:09:24;;;;;;;26.02;11.52;;;4.80;99.90;;;;;;5053103;28;20067;-70
2020/12/25 08:11:51;;;;;;;25.58;11.75;;;4.90;99.90;;;;;;5054453;28;20437;-70
2020/12/25 08:14:18;;;;;;;35.38;12.63;;;4.90;99.90;;;;;;5055044;28;20021;-70
2020/12/25 08:16:46;;;;;;;34.65;12.82;;;5.00;99.90;;;;;;5051332;28;20100;-69
2020/12/25 08:19:12;;;;;;;30.02;11.85;;;5.00;99.90;;;;;;5044875;28;20057;-73
2020/12/25 08:21:39;;;;;;;27.20;9.43;;;5.00;99.90;;;;;;5054144;28;20051;-68
2020/12/25 08:24:06;;;;;;;30.73;11.35;;;5.00;99.90;;;;;;5051069;28;20077;-69
2020/12/25 08:26:36;;;;;;;37.45;11.85;;;5.00;99.90;;;;;;5034401;28;20045;-69
2020/12/25 08:29:02;;;;;;;37.75;12.60;;;5.00;99.90;;;;;;5033679;28;20026;-69
2020/12/25 08:31:36;;;;;;;35.47;11.90;;;5.00;99.90;;;;;;5038314;28;20471;-73
2020/12/25 08:34:02;;;;;;;35.80;14.02;;;5.10;99.90;;;;;;5054440;28;20040;-69
2020/12/25 08:36:28;;;;;;;34.92;12.52;;;5.10;99.90;;;;;;5051096;28;20079;-69
2020/12/25 08:38:54;;;;;;;34.80;12.35;;;5.10;99.90;;;;;;5034830;28;20029;-68
2020/12/25 08:41:28;;;;;;;28.38;12.32;;;5.20;99.90;;;;;;5049140;28;20518;-72
2020/12/25 08:43:54;;;;;;;32.42;11.52;;;5.20;99.90;;;;;;5054337;28;20025;-70
2020/12/25 08:46:22;;;;;;;38.17;12.43;;;5.20;99.90;;;;;;5037696;28;20052;-70
2020/12/25 08:48:50;;;;;;;37.25;13.85;;;5.30;99.90;;;;;;5033397;28;20029;-69
2020/12/25 08:51:17;;;;;;;34.75;14.23;;;5.30;99.90;;;;;;5038284;28;20033;-72
2020/12/25 08:53:53;;;;;;;37.03;13.25;;;5.30;99.90;;;;;;5036517;28;20041;-70
2020/12/25 08:56:25;;;;;;;43.83;14.82;;;5.30;99.90;;;;;;5045149;28;20506;-69
2020/12/25 08:58:59;;;;;;;37.33;16.55;;;5.30;99.90;;;;;;5051045;28;20021;-71
2020/12/25 09:01:27;;;;;;;33.03;13.57;;;5.30;99.90;;;;;;5054065;28;20021;-69
2020/12/25 09:03:53;;;;;;;42.47;15.43;;;5.30;99.90;;;;;;5039806;28;20044;-70
2020/12/25 09:06:19;;;;;;;49.80;16.98;;;5.30;99.90;;;;;;5041483;28;20032;-70
2020/12/25 09:08:45;;;;;;;37.10;16.45;;;5.30;99.90;;;;;;5034297;28;20030;-70
2020/12/25 09:11:15;;;;;;;40.08;16.13;;;5.40;99.90;;;;;;5032740;28;20030;-69
2020/12/25 09:13:42;;;;;;;41.35;16.20;;;5.40;99.90;;;;;;5032146;28;20033;-68
2020/12/25 09:16:08;;;;;;;34.95;13.90;;;5.40;99.90;;;;;;5041836;28;20034;-69
2020/12/25 09:18:35;;;;;;;35.80;15.73;;;5.30;99.90;;;;;;5040284;28;20052;-69
2020/12/25 09:21:02;;;;;;;29.88;13.25;;;5.40;99.90;;;;;;5034408;28;20026;-69
2020/12/25 09:23:28;;;;;;;38.30;14.45;;;5.40;99.90;;;;;;5051350;28;20467;-70
2020/12/25 09:25:54;;;;;;;50.90;18.48;;;5.40;99.90;;;;;;5036285;28;20046;-69
2020/12/25 09:28:20;;;;;;;44.13;16.85;;;5.40;99.90;;;;;;5033883;28;20049;-71
2020/12/25 09:30:46;;;;;;;38.72;15.40;;;5.40;99.90;;;;;;5033870;28;20065;-67
2020/12/25 09:33:12;;;;;;;52.80;23.55;;;5.40;99.90;;;;;;5032707;28;20032;-69
2020/12/25 09:35:37;;;;;;;55.85;21.98;;;5.40;99.90;;;;;;5032565;28;20029;-68
2020/12/25 09:38:03;;;;;;;49.83;18.23;;;5.50;99.90;;;;;;5032331;28;20116;-69
2020/12/25 09:40:29;;;;;;;57.38;19.50;;;5.50;99.90;;;;;;5032090;28;20369;-70
2020/12/25 09:42:54;;;;;;;51.30;17.95;;;5.50;99.90;;;;;;5034548;28;20036;-69
2020/12/25 09:45:20;;;;;;;58.13;18.60;;;5.50;99.90;;;;;;5046893;28;20464;-68
2020/12/25 09:47:46;;;;;;;64.40;19.67;;;5.50;99.90;;;;;;5037604;28;20083;-68
2020/12/25 09:50:12;;;;;;;80.78;22.60;;;5.60;99.90;;;;;;5043811;28;20030;-68
2020/12/25 09:52:37;;;;;;;101.93;28.27;;;5.70;99.90;;;;;;5035639;28;20041;-67
2020/12/25 09:55:04;;;;;;;117.60;29.75;;;5.80;99.90;;;;;;5033819;28;20064;-68
2020/12/25 09:57:30;;;;;;;123.43;33.70;;;5.80;99.90;;;;;;5043608;28;20026;-68
2020/12/25 09:59:56;;;;;;;157.27;37.30;;;5.80;99.90;;;;;;5033137;28;20029;-70
2020/12/25 10:02:22;;;;;;;211.20;47.75;;;5.90;99.90;;;;;;5035963;28;20033;-67
2020/12/25 10:04:48;;;;;;;206.10;46.80;;;5.90;99.90;;;;;;5031206;28;20042;-68
2020/12/25 10:07:14;;;;;;;191.10;42.55;;;6.00;99.90;;;;;;5042516;28;20064;-68
2020/12/25 10:09:40;;;;;;;195.07;47.28;;;6.00;99.90;;;;;;5031439;28;20033;-67
2020/12/25 10:12:06;;;;;;;206.48;46.60;;;6.00;99.90;;;;;;5031512;28;20068;-67
2020/12/25 10:14:31;;;;;;;211.30;45.58;;;6.00;99.90;;;;;;5031156;28;20029;-68
2020/12/25 10:16:57;;;;;;;190.57;43.97;;;5.90;99.90;;;;;;5045941;28;20632;-68
2020/12/25 10:19:23;;;;;;;153.40;38.58;;;5.80;99.90;;;;;;5048260;28;20323;-68
2020/12/25 10:21:50;;;;;;;191.05;44.10;;;5.80;99.90;;;;;;5051308;28;20025;-70
2020/12/25 10:24:16;;;;;;;187.60;44.35;;;5.80;99.90;;;;;;5045418;28;20030;-66
2020/12/25 10:26:42;;;;;;;159.57;39.60;;;5.80;99.90;;;;;;5036815;28;20061;-68
2020/12/25 10:29:08;;;;;;;166.27;38.70;;;5.80;99.90;;;;;;5031435;28;20172;-67
2020/12/25 10:31:34;;;;;;;122.25;33.70;;;5.80;99.90;;;;;;5043834;28;20591;-68
2020/12/25 10:33:59;;;;;;;82.00;23.88;;;5.90;99.90;;;;;;5031464;28;20032;-77
2020/12/25 10:36:25;;;;;;;51.28;19.80;;;6.00;99.90;;;;;;5034809;28;20383;-70
2020/12/25 10:38:51;;;;;;;63.08;19.25;;;6.10;99.90;;;;;;5038502;28;20478;-70
2020/12/25 10:41:17;;;;;;;57.25;19.63;;;6.10;99.90;;;;;;5032314;28;20033;-69
2020/12/25 10:43:47;;;;;;;58.17;20.02;;;6.10;99.90;;;;;;5039674;28;20059;-69
2020/12/25 10:46:48;;;;;;;;;;;;;;;;;;;;;
2020/12/25 10:49:38;;;;;;;;;;;;;;;;;;;;;
2020/12/25 10:52:15;;;;;;;61.95;25.00;;;6.10;99.90;;;;;;5040250;28;20035;-71
2020/12/25 10:55:18;;;;;;;60.47;24.45;;;6.10;99.90;;;;;;5050376;28;20025;-71
2020/12/25 11:01:28;;;;;;;63.15;27.38;;;6.20;99.90;;;;;;5031873;28;20031;-71
2020/12/25 11:04:13;;;;;;;55.28;24.52;;;6.20;99.90;;;;;;5035673;28;20028;-71
2020/12/25 11:06:48;;;;;;;61.33;25.92;;;6.40;99.90;;;;;;5056891;28;20032;-70
2020/12/25 11:09:15;;;;;;;50.47;22.93;;;6.30;99.90;;;;;;5034892;28;20168;-71
2020/12/25 11:11:57;;;;;;;;;;;;;;;;;;;;;
2020/12/25 11:15:08;;;;;;;58.97;25.95;;;6.50;99.90;;;;;;5049057;28;20014;-72
2020/12/25 11:17:59;;;;;;;98.00;39.08;;;6.50;99.90;;;;;;5040344;28;20025;-71
2020/12/25 11:20:31;;;;;;;108.85;41.30;;;6.50;99.90;;;;;;5052592;28;20025;-73
2020/12/25 11:23:18;;;;;;;89.18;34.80;;;6.50;99.90;;;;;;5043993;28;20036;-72
2020/12/25 11:26:16;;;;;;;100.60;38.97;;;6.50;99.90;;;;;;5042560;28;20064;-70
2020/12/25 11:31:51;;;;;;;68.50;30.55;;;6.50;99.90;;;;;;5045386;28;20051;-72
2020/12/25 11:34:17;;;;;;;81.95;31.30;;;6.50;99.90;;;;;;5044724;28;20040;-72
2020/12/25 11:36:46;;;;;;;89.15;35.42;;;6.50;99.90;;;;;;5039390;28;20033;-71
2020/12/25 11:39:17;;;;;;;111.00;45.08;;;6.60;99.90;;;;;;5038406;28;20034;-73
2020/12/25 11:41:50;;;;;;;130.10;51.53;;;6.60;99.90;;;;;;5039309;28;20053;-70
2020/12/25 11:44:16;;;;;;;123.97;56.17;;;6.60;99.90;;;;;;5041752;28;20045;-69
2020/12/25 11:46:42;;;;;;;133.32;59.55;;;6.60;99.90;;;;;;5046885;28;20052;-70
2020/12/25 11:49:08;;;;;;;139.32;65.50;;;6.60;99.90;;;;;;5038968;28;20098;-71
2020/12/25 11:51:34;;;;;;;149.15;68.82;;;6.60;99.90;;;;;;5042242;28;20029;-69
2020/12/25 11:54:00;;;;;;;159.23;70.53;;;6.70;99.90;;;;;;5043788;28;20022;-73
2020/12/25 11:56:30;;;;;;;131.63;63.08;;;6.80;99.90;;;;;;5037606;28;20079;-68
2020/12/25 11:59:00;;;;;;;133.63;58.83;;;6.80;99.90;;;;;;5038778;28;20029;-70
2020/12/25 12:01:26;;;;;;;120.45;53.42;;;6.90;99.90;;;;;;5042552;28;20055;-68
2020/12/25 12:03:52;;;;;;;133.00;53.92;;;7.00;99.90;;;;;;5052629;28;20028;-71
2020/12/25 12:06:19;;;;;;;136.02;50.55;;;7.10;99.90;;;;;;5040220;28;20395;-71
2020/12/25 12:08:45;;;;;;;158.77;57.55;;;7.10;99.90;;;;;;5050860;28;20025;-70
2020/12/25 12:11:14;;;;;;;194.05;71.38;;;7.10;99.90;;;;;;5035289;28;20041;-71
2020/12/25 12:13:40;;;;;;;158.85;57.03;;;7.10;99.90;;;;;;5036521;28;20026;-70
2020/12/25 12:16:15;;;;;;;114.60;43.17;;;7.10;99.90;;;;;;5059898;28;20021;-70
2020/12/25 12:18:42;;;;;;;121.07;45.95;;;7.10;99.90;;;;;;5051636;28;20087;-71
2020/12/25 12:21:11;;;;;;;105.57;41.97;;;7.10;99.90;;;;;;5054517;28;20091;-69
2020/12/25 12:23:37;;;;;;;87.65;37.92;;;7.10;99.90;;;;;;5039988;28;20480;-70
2020/12/25 12:26:05;;;;;;;71.85;32.70;;;7.10;99.90;;;;;;5038902;28;20049;-70
2020/12/25 12:28:32;;;;;;;64.20;29.15;;;7.20;99.90;;;;;;5044072;28;20051;-71
2020/12/25 12:31:00;;;;;;;65.28;28.35;;;7.20;99.90;;;;;;5041287;28;20082;-69
2020/12/25 12:33:28;;;;;;;62.33;29.00;;;7.20;99.90;;;;;;5052969;28;20067;-70
2020/12/25 12:35:54;;;;;;;60.85;28.05;;;7.20;99.90;;;;;;5053489;28;20036;-69
2020/12/25 12:38:22;;;;;;;66.80;30.40;;;7.10;99.90;;;;;;5062128;28;20028;-70
2020/12/25 12:40:48;;;;;;;72.38;32.90;;;7.20;99.90;;;;;;5041815;28;20353;-69
2020/12/25 12:43:14;;;;;;;85.65;36.08;;;7.20;99.90;;;;;;5055812;28;20121;-70
2020/12/25 12:45:40;;;;;;;70.70;30.27;;;7.20;99.90;;;;;;5033231;28;20071;-69
2020/12/25 12:48:06;;;;;;;76.88;31.58;;;7.20;99.90;;;;;;5032791;28;20079;-70
2020/12/25 12:50:31;;;;;;;75.03;29.58;;;7.10;99.90;;;;;;5032729;28;20038;-70
2020/12/25 12:52:57;;;;;;;68.60;25.92;;;7.10;99.90;;;;;;5053943;28;20096;-70
2020/12/25 12:55:23;;;;;;;69.57;26.55;;;7.00;99.90;;;;;;5038735;28;20057;-69
2020/12/25 12:57:52;;;;;;;75.07;29.55;;;7.00;99.90;;;;;;5033448;28;20113;-69
2020/12/25 13:00:18;;;;;;;75.57;28.55;;;6.90;99.90;;;;;;5033586;28;20037;-68
2020/12/25 13:02:55;;;;;;;73.70;28.95;;;6.80;99.90;;;;;;5034622;28;20099;-69
2020/12/25 13:05:21;;;;;;;77.78;28.67;;;6.80;99.90;;;;;;5055233;28;20025;-69
2020/12/25 13:07:47;;;;;;;94.43;30.75;;;6.80;99.90;;;;;;5033374;28;20022;-71
2020/12/25 13:10:15;;;;;;;66.80;27.27;;;6.80;99.90;;;;;;5047373;28;20482;-68
2020/12/25 13:12:41;;;;;;;74.80;30.90;;;6.80;99.90;;;;;;5032085;28;20029;-69
2020/12/25 13:15:06;;;;;;;66.72;28.80;;;6.80;99.90;;;;;;5033126;28;20025;-70
2020/12/25 13:17:32;;;;;;;78.07;29.70;;;6.80;99.90;;;;;;5041757;28;20426;-69
2020/12/25 13:20:02;;;;;;;87.80;31.80;;;6.80;99.90;;;;;;5055815;28;20140;-69
2020/12/25 13:22:52;;;;;;;94.35;31.42;;;6.80;99.90;;;;;;5057992;28;20049;-69
2020/12/25 13:25:20;;;;;;;111.63;34.55;;;6.70;99.90;;;;;;5052925;28;20636;-69
2020/12/25 13:27:49;;;;;;;144.82;41.70;;;6.70;99.90;;;;;;5053623;28;20115;-69
2020/12/25 13:30:15;;;;;;;145.32;38.47;;;6.60;99.90;;;;;;5051006;28;20112;-74
2020/12/25 13:32:40;;;;;;;274.88;74.63;;;6.60;99.90;;;;;;5046524;28;20120;-71
2020/12/25 13:35:06;;;;;;;191.32;55.10;;;6.50;99.90;;;;;;5053604;28;20024;-69
2020/12/25 13:37:32;;;;;;;142.65;42.90;;;6.40;99.90;;;;;;5057557;28;20391;-71
2020/12/25 13:39:57;;;;;;;167.55;44.40;;;6.40;99.90;;;;;;5038916;28;20168;-72
2020/12/25 13:42:23;;;;;;;154.38;42.70;;;6.40;99.90;;;;;;5044589;28;20040;-70
2020/12/25 13:44:52;;;;;;;126.43;41.47;;;6.40;99.90;;;;;;5049187;28;20059;-70
2020/12/25 13:47:18;;;;;;;123.82;36.95;;;6.30;99.90;;;;;;5052569;28;20517;-70
2020/12/25 13:49:44;;;;;;;94.97;31.40;;;6.30;99.90;;;;;;5046985;28;20033;-69
2020/12/25 13:52:30;;;;;;;95.78;29.65;;;6.20;99.90;;;;;;5048533;28;20029;-69
2020/12/25 13:54:55;;;;;;;;;;;6.20;99.90;;;;;;5041981;28;20021;-69
2020/12/25 13:57:21;;;;;;;80.72;27.88;;;6.10;99.90;;;;;;5051713;28;19905;-69
2020/12/25 13:59:56;;;;;;;92.60;29.70;;;6.00;99.90;;;;;;5052230;28;20029;-68
2020/12/25 14:02:22;;;;;;;104.57;34.13;;;6.00;99.90;;;;;;5051781;28;20023;-71
2020/12/25 14:04:47;;;;;;;73.63;27.63;;;6.00;99.90;;;;;;5038622;28;20029;-68
2020/12/25 14:07:13;;;;;;;87.18;32.80;;;5.90;99.90;;;;;;5036511;28;20104;-69
2020/12/25 14:09:39;;;;;;;84.28;30.27;;;6.00;99.90;;;;;;5034641;28;20563;-68
2020/12/25 14:12:05;;;;;;;94.78;33.25;;;5.90;99.90;;;;;;5032185;28;20035;-70
2020/12/25 14:14:31;;;;;;;99.53;34.25;;;5.90;99.90;;;;;;5052398;28;20029;-73
2020/12/25 14:16:56;;;;;;;89.18;32.63;;;5.90;99.90;;;;;;5038970;28;20398;-67
2020/12/25 14:19:22;;;;;;;106.97;36.35;;;5.90;99.90;;;;;;5036040;28;20440;-69
2020/12/25 14:21:48;;;;;;;146.95;45.42;;;5.90;99.90;;;;;;5050299;28;20037;-69
2020/12/25 14:24:14;;;;;;;146.07;47.33;;;5.90;99.90;;;;;;5042717;28;20484;-69
2020/12/25 14:26:46;;;;;;;104.20;36.78;;;5.90;99.90;;;;;;5037490;28;20128;-68
2020/12/25 14:29:12;;;;;;;114.78;39.97;;;5.90;99.90;;;;;;5049894;28;20109;-68
2020/12/25 14:31:37;;;;;;;89.72;31.80;;;5.90;99.90;;;;;;5036190;28;20119;-68
2020/12/25 14:34:03;;;;;;;85.78;30.10;;;5.90;99.90;;;;;;5035507;28;20494;-69
2020/12/25 14:36:29;;;;;;;83.00;27.67;;;5.80;99.90;;;;;;5041197;28;20029;-69
2020/12/25 14:38:54;;;;;;;91.53;31.75;;;5.80;99.90;;;;;;5035309;28;20029;-68
2020/12/25 14:41:24;;;;;;;78.55;28.92;;;5.80;99.90;;;;;;5044945;28;20025;-69
2020/12/25 14:43:50;;;;;;;81.20;31.75;;;5.80;99.90;;;;;;5048683;28;20024;-67
2020/12/25 14:46:16;;;;;;;78.28;31.30;;;5.80;99.90;;;;;;5042142;28;20052;-68
2020/12/25 14:48:42;;;;;;;79.68;30.20;;;5.90;99.90;;;;;;5036386;28;20040;-68
2020/12/25 14:51:08;;;;;;;79.75;30.88;;;5.90;99.90;;;;;;5042118;28;20124;-68
2020/12/25 14:53:33;;;;;;;84.65;32.10;;;5.90;99.90;;;;;;5040968;28;20060;-68
2020/12/25 14:55:59;;;;;;;76.55;29.38;;;5.90;99.90;;;;;;5045341;28;20499;-68
2020/12/25 14:58:25;;;;;;;90.43;33.80;;;5.90;99.90;;;;;;5049598;28;20032;-68
2020/12/25 15:00:51;;;;;;;82.82;32.08;;;5.90;99.90;;;;;;5043264;28;20025;-68
2020/12/25 15:03:17;;;;;;;85.05;33.80;;;5.90;99.90;;;;;;5048742;28;20059;-71
2020/12/25 15:05:46;;;;;;;80.07;31.55;;;5.90;99.90;;;;;;5047822;28;20060;-69
2020/12/25 15:08:11;;;;;;;75.32;32.47;;;5.90;99.90;;;;;;5047462;28;20022;-69
2020/12/25 15:10:40;;;;;;;70.72;30.77;;;5.90;99.90;;;;;;5052598;28;20033;-68
2020/12/25 15:13:06;;;;;;;78.22;33.50;;;5.80;99.90;;;;;;5059525;28;20025;-68
2020/12/25 15:15:31;;;;;;;74.57;32.88;;;5.90;99.90;;;;;;5040982;28;20047;-69
2020/12/25 15:17:57;;;;;;;76.50;33.53;;;5.90;99.90;;;;;;5057221;28;20031;-69
2020/12/25 15:20:23;;;;;;;62.05;28.13;;;5.90;99.90;;;;;;5058894;28;20028;-69
2020/12/25 15:22:48;;;;;;;60.05;29.25;;;6.00;99.90;;;;;;5051613;28;20035;-70
2020/12/25 15:25:14;;;;;;;69.47;31.40;;;6.00;99.90;;;;;;5037204;28;20037;-69
2020/12/25 15:27:40;;;;;;;70.75;31.55;;;6.00;99.90;;;;;;5039980;28;20051;-68
2020/12/25 15:30:05;;;;;;;63.20;29.98;;;6.00;99.90;;;;;;5035649;28;20037;-68
2020/12/25 15:32:31;;;;;;;74.32;33.35;;;6.00;99.90;;;;;;5035030;28;20364;-69
2020/12/25 15:34:57;;;;;;;66.88;30.80;;;6.00;99.90;;;;;;5034701;28;20032;-70
2020/12/25 15:37:22;;;;;;;73.05;33.50;;;6.00;99.90;;;;;;5042621;28;20041;-68
2020/12/25 15:39:48;;;;;;;72.90;34.08;;;6.10;99.90;;;;;;5038214;28;20029;-70
2020/12/25 15:42:14;;;;;;;72.55;33.90;;;6.10;99.90;;;;;;5047763;28;20025;-68
2020/12/25 15:44:40;;;;;;;69.97;32.40;;;6.10;99.90;;;;;;5047334;28;20064;-70
2020/12/25 15:47:06;;;;;;;71.93;34.05;;;6.10;99.90;;;;;;5039060;28;20056;-69
2020/12/25 15:49:32;;;;;;;67.85;31.75;;;6.10;99.90;;;;;;5044562;28;20060;-67
2020/12/25 15:51:58;;;;;;;67.70;32.17;;;6.10;99.90;;;;;;5039269;28;20395;-78
2020/12/25 15:54:24;;;;;;;65.85;32.95;;;6.20;99.90;;;;;;5032121;28;20041;-69
2020/12/25 15:56:50;;;;;;;69.88;32.97;;;6.20;99.90;;;;;;5050947;28;20017;-72
2020/12/25 15:59:17;;;;;;;81.38;35.45;;;6.20;99.90;;;;;;5053917;28;20045;-69
2020/12/25 16:01:43;;;;;;;72.78;35.83;;;6.30;99.90;;;;;;5057398;28;20385;-69
2020/12/25 16:04:10;;;;;;;75.28;35.80;;;6.30;99.90;;;;;;5053611;28;20109;-68
2020/12/25 16:06:41;;;;;;;78.90;36.33;;;6.30;99.90;;;;;;5054362;28;20096;-68
2020/12/25 16:09:08;;;;;;;75.00;38.70;;;6.30;99.90;;;;;;5041233;28;20029;-70
2020/12/25 16:11:33;;;;;;;71.80;36.53;;;6.30;99.90;;;;;;5049535;28;20143;-69
2020/12/25 16:13:59;;;;;;;74.85;38.05;;;6.30;99.90;;;;;;5054426;28;20025;-69
2020/12/25 16:16:25;;;;;;;83.20;38.38;;;6.30;99.90;;;;;;5054133;28;20434;-69
2020/12/25 16:18:51;;;;;;;79.20;37.13;;;6.30;99.90;;;;;;5054330;28;20109;-70
2020/12/25 16:21:19;;;;;;;78.70;36.80;;;6.30;99.90;;;;;;5054912;28;20025;-69
2020/12/25 16:23:45;;;;;;;77.03;37.58;;;6.40;99.90;;;;;;5052818;28;20036;-69
2020/12/25 16:26:14;;;;;;;70.45;35.83;;;6.40;99.90;;;;;;5037961;28;20057;-71
2020/12/25 16:28:41;;;;;;;78.53;36.33;;;6.30;99.90;;;;;;5049965;28;20025;-68
2020/12/25 16:31:07;;;;;;;64.55;33.97;;;6.30;99.90;;;;;;5051890;28;20024;-67
2020/12/25 16:33:33;;;;;;;85.00;41.80;;;6.30;99.90;;;;;;5052168;28;20526;-68
2020/12/25 16:35:58;;;;;;;108.30;47.10;;;6.30;99.90;;;;;;5047074;28;20569;-69
2020/12/25 16:38:26;;;;;;;95.55;42.08;;;6.30;99.90;;;;;;5039707;28;20025;-69
2020/12/25 16:40:52;;;;;;;82.85;38.83;;;6.20;99.90;;;;;;5042266;28;20029;-71
2020/12/25 16:43:18;;;;;;;73.88;37.28;;;6.20;99.90;;;;;;5048234;28;20029;-70
2020/12/25 16:45:44;;;;;;;73.40;36.88;;;6.20;99.90;;;;;;5034491;28;20041;-69
2020/12/25 16:48:10;;;;;;;78.68;37.28;;;6.20;99.90;;;;;;5053113;28;20021;-69
2020/12/25 16:50:35;;;;;;;77.38;38.90;;;6.20;99.90;;;;;;5052433;28;20044;-67
2020/12/25 16:53:01;;;;;;;96.22;45.92;;;6.20;99.90;;;;;;5041060;28;20043;-68
2020/12/25 16:55:27;;;;;;;93.03;43.20;;;6.20;99.90;;;;;;5048013;28;20033;-70
2020/12/25 16:57:52;;;;;;;107.45;51.72;;;6.20;99.90;;;;;;5034597;28;20036;-69
2020/12/25 17:00:18;;;;;;;104.20;49.30;;;6.30;99.90;;;;;;5042038;28;20036;-69
2020/12/25 17:02:44;;;;;;;106.03;49.10;;;6.20;99.90;;;;;;5035944;28;20029;-69
2020/12/25 17:05:12;;;;;;;146.88;58.95;;;6.20;99.90;;;;;;5039175;28;20478;-77
2020/12/25 17:07:39;;;;;;;182.57;73.20;;;6.10;99.90;;;;;;5033503;28;20048;-69
2020/12/25 17:10:04;;;;;;;245.35;85.40;;;6.00;99.90;;;;;;5039876;28;20042;-69
2020/12/25 17:12:34;;;;;;;211.13;83.78;;;6.00;99.90;;;;;;5057267;28;20033;-68
2020/12/25 17:15:00;;;;;;;296.30;104.28;;;5.90;99.90;;;;;;5052462;28;20035;-68
2020/12/25 17:17:25;;;;;;;271.73;104.45;;;5.90;99.90;;;;;;5044744;28;20056;-67
2020/12/25 17:19:51;;;;;;;273.60;103.13;;;5.90;99.90;;;;;;5045096;28;20049;-67
2020/12/25 17:22:17;;;;;;;241.95;93.68;;;5.90;99.90;;;;;;5044340;28;20055;-67
2020/12/25 17:24:42;;;;;;;305.42;107.20;;;5.90;99.90;;;;;;5041159;28;20030;-67
2020/12/25 17:27:08;;;;;;;344.58;118.68;;;5.90;99.90;;;;;;5040430;28;20056;-69
2020/12/25 17:29:35;;;;;;;277.98;106.50;;;5.90;99.90;;;;;;5043066;28;20410;-68
2020/12/25 17:32:00;;;;;;;202.48;82.65;;;5.90;99.90;;;;;;5036648;28;20032;-68
2020/12/25 17:34:26;;;;;;;169.95;68.05;;;5.90;99.90;;;;;;5035172;28;20033;-69
2020/12/25 17:36:52;;;;;;;158.02;66.18;;;5.90;99.90;;;;;;5046467;28;20036;-70
2020/12/25 17:39:18;;;;;;;166.90;68.93;;;5.90;99.90;;;;;;5041178;28;20030;-69
2020/12/25 17:41:44;;;;;;;164.45;66.88;;;5.90;99.90;;;;;;5035163;28;20037;-71
2020/12/25 17:44:10;;;;;;;151.32;63.67;;;5.90;99.90;;;;;;5036019;28;20041;-68
2020/12/25 17:46:35;;;;;;;135.60;58.05;;;5.90;99.90;;;;;;5036847;28;20017;-68
2020/12/25 17:49:03;;;;;;;176.80;75.00;;;5.90;99.90;;;;;;5038457;28;20053;-68
2020/12/25 17:51:31;;;;;;;137.43;56.78;;;5.90;99.90;;;;;;5039389;28;20025;-68
2020/12/25 17:53:57;;;;;;;155.63;56.88;;;5.90;99.90;;;;;;5040327;28;20120;-70
2020/12/25 17:56:24;;;;;;;136.90;56.00;;;5.90;99.90;;;;;;5036565;28;20037;-72
2020/12/25 17:58:51;;;;;;;161.23;58.58;;;5.90;99.90;;;;;;5043127;28;20148;-68
2020/12/25 18:01:20;;;;;;;165.68;62.58;;;5.90;99.90;;;;;;5042949;28;20029;-69
2020/12/25 18:03:46;;;;;;;185.18;63.67;;;5.90;99.90;;;;;;5041774;28;20117;-68
2020/12/25 18:06:12;;;;;;;186.13;63.85;;;5.90;99.90;;;;;;5034631;28;20052;-68
2020/12/25 18:08:38;;;;;;;158.27;60.13;;;5.90;99.90;;;;;;5047475;28;20059;-69
2020/12/25 18:11:04;;;;;;;253.00;72.15;;;5.90;99.90;;;;;;5050747;28;20056;-68
2020/12/25 18:13:30;;;;;;;204.23;69.90;;;5.90;99.90;;;;;;5043505;28;20168;-72
2020/12/25 18:15:57;;;;;;;204.88;69.07;;;5.90;99.90;;;;;;5052908;28;20036;-70
2020/12/25 18:18:22;;;;;;;272.00;79.05;;;5.90;99.90;;;;;;5052303;28;20082;-69
2020/12/25 18:20:48;;;;;;;256.75;77.95;;;6.00;99.90;;;;;;5046516;28;20033;-68
2020/12/25 18:23:14;;;;;;;298.88;82.03;;;6.00;99.90;;;;;;5042821;28;20503;-69
2020/12/25 18:25:40;;;;;;;225.52;70.72;;;6.00;99.90;;;;;;5056834;28;20437;-68
2020/12/25 18:28:06;;;;;;;278.80;75.93;;;5.90;99.90;;;;;;5034645;28;20072;-70
2020/12/25 18:30:35;;;;;;;177.63;60.20;;;5.90;99.90;;;;;;5043047;28;20386;-71
2020/12/25 18:33:01;;;;;;;208.65;66.15;;;6.00;99.90;;;;;;5049658;28;20064;-67
2020/12/25 18:35:27;;;;;;;223.80;67.03;;;5.90;99.90;;;;;;5042918;28;20025;-69
2020/12/25 18:37:53;;;;;;;213.35;65.72;;;5.90;99.90;;;;;;5037898;28;20442;-69
2020/12/25 18:40:28;;;;;;;284.58;80.80;;;6.00;99.90;;;;;;5051185;28;20040;-69
2020/12/25 18:42:53;;;;;;;267.90;83.87;;;5.90;99.90;;;;;;5051567;28;20506;-69
2020/12/25 18:45:19;;;;;;;339.73;101.45;;;5.90;99.90;;;;;;5038439;28;20059;-68
2020/12/25 18:47:45;;;;;;;262.65;84.05;;;5.90;99.90;;;;;;5050424;28;20025;-78
2020/12/25 18:50:11;;;;;;;207.40;63.30;;;5.90;99.90;;;;;;5045715;28;20025;-68
2020/12/25 18:52:37;;;;;;;217.82;65.95;;;5.90;99.90;;;;;;5045381;28;20036;-68
2020/12/25 18:55:05;;;;;;;197.48;67.15;;;5.90;99.90;;;;;;5050307;28;20032;-69
2020/12/25 18:57:31;;;;;;;189.93;67.43;;;5.80;99.90;;;;;;5037585;28;20025;-69
2020/12/25 18:59:57;;;;;;;137.95;56.13;;;5.90;99.90;;;;;;5049776;28;20055;-69
2020/12/25 19:02:26;;;;;;;101.95;46.55;;;5.90;99.90;;;;;;5043232;28;20032;-67
2020/12/25 19:04:51;;;;;;;89.68;40.28;;;5.80;99.90;;;;;;5063708;28;20380;-68
2020/12/25 19:07:17;;;;;;;79.93;35.78;;;5.80;99.90;;;;;;5050784;28;20117;-68
2020/12/25 19:09:46;;;;;;;68.90;34.10;;;5.80;99.90;;;;;;5035084;28;20391;-68
2020/12/25 19:12:12;;;;;;;61.53;31.25;;;5.90;99.90;;;;;;5043550;28;20079;-66
2020/12/25 19:14:38;;;;;;;57.50;29.73;;;5.90;99.90;;;;;;5049798;28;20053;-68
2020/12/25 19:17:06;;;;;;;54.83;28.90;;;5.90;99.90;;;;;;5051112;28;20017;-67
2020/12/25 19:19:32;;;;;;;50.83;26.85;;;5.90;99.90;;;;;;5051580;28;20029;-69
2020/12/25 19:22:03;;;;;;;50.80;26.35;;;5.90;99.90;;;;;;5048879;28;20037;-68
2020/12/25 19:24:28;;;;;;;48.53;25.65;;;5.90;99.90;;;;;;5038308;28;20031;-68
2020/12/25 19:26:54;;;;;;;51.25;27.48;;;5.80;99.90;;;;;;5036475;28;20049;-67
2020/12/25 19:29:21;;;;;;;39.83;21.00;;;5.80;99.90;;;;;;5040042;28;20037;-68
2020/12/25 19:31:54;;;;;;;33.83;20.17;;;5.80;99.90;;;;;;5034088;28;20030;-67
2020/12/25 19:34:20;;;;;;;34.85;19.60;;;5.80;99.90;;;;;;5035909;28;20108;-70
2020/12/25 19:36:51;;;;;;;35.90;19.10;;;5.70;99.90;;;;;;5031615;28;20052;-69
2020/12/25 19:39:19;;;;;;;32.55;18.15;;;5.70;99.90;;;;;;5041917;28;20079;-68
2020/12/25 19:41:45;;;;;;;32.75;17.88;;;5.60;99.90;;;;;;5042773;28;20029;-69
2020/12/25 19:44:10;;;;;;;35.63;18.92;;;5.60;99.90;;;;;;5048541;28;20037;-69
2020/12/25 19:46:36;;;;;;;30.58;17.63;;;5.60;99.90;;;;;;5046536;28;20705;-70
2020/12/25 19:49:15;;;;;;;30.33;17.15;;;5.60;99.90;;;;;;5040129;28;20482;-69
2020/12/25 19:51:41;;;;;;;30.85;16.55;;;5.60;99.90;;;;;;5041802;28;20045;-73
2020/12/25 19:54:10;;;;;;;27.02;15.57;;;5.50;99.90;;;;;;5047682;28;20440;-67
2020/12/25 19:56:35;;;;;;;32.00;16.33;;;5.50;99.90;;;;;;5047164;28;20020;-68
2020/12/25 19:59:01;;;;;;;27.52;16.40;;;5.50;99.90;;;;;;5046295;28;20143;-68
2020/12/25 20:01:29;;;;;;;27.77;15.50;;;5.50;99.90;;;;;;5047601;28;20056;-75
2020/12/25 20:04:00;;;;;;;27.30;15.10;;;5.40;99.90;;;;;;5044466;28;20111;-68
2020/12/25 20:06:26;;;;;;;23.83;14.35;;;5.40;99.90;;;;;;5042806;28;20025;-69
2020/12/25 20:08:52;;;;;;;29.35;16.05;;;5.40;99.90;;;;;;5040382;28;20048;-68
2020/12/25 20:11:18;;;;;;;22.70;12.95;;;5.40;99.90;;;;;;5047683;28;20479;-67